createdAt,value
2023-07-29T00:00:01.159Z,0.00
2023-07-29T00:01:01.196Z,0.00
2023-07-29T00:02:01.114Z,0.00
2023-07-29T00:03:01.192Z,0.00
2023-07-29T00:04:01.097Z,0.00
2023-07-29T00:05:03.498Z,0.00
2023-07-29T00:06:01.176Z,0.00
2023-07-29T00:07:01.141Z,0.00
2023-07-29T00:08:01.106Z,0.00
2023-07-29T00:09:00.991Z,0.00
2023-07-29T00:10:24.291Z,0.00
2023-07-29T00:11:15.207Z,0.00
2023-07-29T00:12:00.976Z,0.00
2023-07-29T00:13:01.071Z,0.00
2023-07-29T00:14:01.012Z,0.00
2023-07-29T00:15:00.944Z,0.00
2023-07-29T00:16:00.983Z,0.00
2023-07-29T00:17:01.143Z,0.00
2023-07-29T00:18:00.999Z,0.00
2023-07-29T00:19:00.857Z,0.00
2023-07-29T00:20:00.893Z,0.00
2023-07-29T00:21:00.956Z,0.00
2023-07-29T00:22:00.912Z,0.00
2023-07-29T00:23:23.033Z,0.00
2023-07-29T00:24:00.934Z,0.00
2023-07-29T00:25:19.267Z,0.00
2023-07-29T00:26:00.835Z,0.00
2023-07-29T00:27:00.909Z,0.00
2023-07-29T00:28:00.909Z,0.00
2023-07-29T00:29:00.881Z,0.00
2023-07-29T00:30:00.913Z,0.00
2023-07-29T00:31:01.202Z,0.00
2023-07-29T00:32:00.932Z,0.00
2023-07-29T00:33:00.811Z,0.00
2023-07-29T00:34:00.824Z,0.00
2023-07-29T00:35:00.770Z,0.00
2023-07-29T00:36:21.809Z,0.00
2023-07-29T00:37:00.737Z,0.00
2023-07-29T00:38:00.809Z,0.00
2023-07-29T00:39:00.815Z,0.00
2023-07-29T00:40:00.721Z,0.00
2023-07-29T00:41:00.687Z,0.00
2023-07-29T00:42:00.698Z,0.00
2023-07-29T00:43:00.741Z,0.00
2023-07-29T00:44:00.759Z,0.00
2023-07-29T00:45:00.697Z,0.00
2023-07-29T00:46:00.749Z,0.00
2023-07-29T00:47:00.678Z,0.00
2023-07-29T00:48:00.734Z,0.00
2023-07-29T00:49:00.697Z,0.00
2023-07-29T00:50:00.630Z,0.00
2023-07-29T00:51:00.540Z,0.00
2023-07-29T00:52:00.609Z,0.00
2023-07-29T00:53:00.819Z,0.00
2023-07-29T01:42:03.961Z,0.00
2023-07-29T01:43:03.958Z,0.00
2023-07-29T01:44:03.965Z,0.00
2023-07-29T01:45:03.964Z,0.00
2023-07-29T01:46:04.015Z,0.00
2023-07-29T01:47:03.951Z,0.00
2023-07-29T01:48:03.978Z,0.00
2023-07-29T01:49:03.947Z,0.00
2023-07-29T01:50:03.964Z,0.00
2023-07-29T01:51:03.943Z,0.00
2023-07-29T01:52:03.951Z,0.00
2023-07-29T01:53:03.865Z,0.00
2023-07-29T01:54:03.889Z,0.00
2023-07-29T01:55:03.849Z,0.00
2023-07-29T01:56:03.824Z,0.00
2023-07-29T01:57:03.899Z,0.00
2023-07-29T01:58:03.873Z,0.00
2023-07-29T01:59:03.862Z,0.00
2023-07-29T02:00:03.809Z,0.00
2023-07-29T02:01:03.819Z,0.00
2023-07-29T02:02:03.795Z,0.00
2023-07-29T02:03:03.892Z,0.00
2023-07-29T02:04:03.764Z,0.00
2023-07-29T02:05:03.707Z,0.00
2023-07-29T02:06:03.745Z,0.00
2023-07-29T02:07:03.701Z,0.00
2023-07-29T02:08:03.763Z,0.00
2023-07-29T02:09:03.755Z,0.00
2023-07-29T02:10:03.678Z,0.00
2023-07-29T02:11:03.676Z,0.00
2023-07-29T02:12:03.789Z,0.00
2023-07-29T02:13:03.640Z,0.00
2023-07-29T02:14:03.703Z,0.00
2023-07-29T02:15:03.593Z,0.00
2023-07-29T02:16:03.628Z,0.00
2023-07-29T02:17:03.769Z,0.00
2023-07-29T02:18:03.613Z,0.00
2023-07-29T02:19:03.738Z,0.00
2023-07-29T02:20:03.527Z,0.00
2023-07-29T02:21:03.585Z,0.00
2023-07-29T02:22:03.550Z,0.00
2023-07-29T02:23:03.559Z,0.00
2023-07-29T02:24:03.522Z,0.00
2023-07-29T02:25:03.509Z,0.00
2023-07-29T02:26:03.463Z,0.00
2023-07-29T02:27:03.475Z,0.00
2023-07-29T02:28:03.484Z,0.00
2023-07-29T02:29:03.398Z,0.00
2023-07-29T02:30:03.429Z,0.00
2023-07-29T02:31:03.400Z,0.00
2023-07-29T02:32:03.479Z,0.00
2023-07-29T02:33:03.585Z,0.00
2023-07-29T02:34:03.392Z,0.00
2023-07-29T02:35:03.466Z,0.00
2023-07-29T02:36:03.436Z,0.00
2023-07-29T02:37:03.382Z,0.00
2023-07-29T02:38:03.399Z,0.00
2023-07-29T02:39:03.378Z,0.00
2023-07-29T02:40:03.267Z,0.00
2023-07-29T02:41:03.332Z,0.00
2023-07-29T02:42:03.316Z,0.00
2023-07-29T02:43:03.282Z,0.00
2023-07-29T02:44:03.296Z,0.00
2023-07-29T02:45:29.665Z,0.00
2023-07-29T02:46:05.606Z,0.00
2023-07-29T02:47:08.026Z,0.00
2023-07-29T02:48:05.341Z,0.00
2023-07-29T02:49:03.260Z,0.00
2023-07-29T02:50:03.365Z,0.00
2023-07-29T02:51:15.554Z,0.00
2023-07-29T02:52:03.247Z,0.00
2023-07-29T02:53:03.381Z,0.00
2023-07-29T02:54:03.223Z,0.00
2023-07-29T02:55:03.253Z,0.00
2023-07-29T02:56:03.198Z,0.00
2023-07-29T02:57:03.345Z,0.00
2023-07-29T02:58:25.427Z,0.00
2023-07-29T02:59:04.361Z,0.00
2023-07-29T03:00:03.195Z,0.00
2023-07-29T03:01:26.355Z,0.00
2023-07-29T03:02:03.191Z,0.00
2023-07-29T03:03:26.251Z,0.00
2023-07-29T03:04:03.204Z,0.00
2023-07-29T03:05:03.085Z,0.00
2023-07-29T03:06:06.651Z,0.00
2023-07-29T03:07:14.996Z,0.00
2023-07-29T03:08:03.106Z,0.00
2023-07-29T03:09:43.647Z,0.00
2023-07-29T03:10:03.081Z,0.00
2023-07-29T03:11:03.161Z,0.00
2023-07-29T03:12:03.025Z,0.00
2023-07-29T03:13:04.201Z,0.00
2023-07-29T03:14:13.743Z,0.00
2023-07-29T03:15:02.989Z,0.00
2023-07-29T03:16:02.929Z,0.00
2023-07-29T03:17:23.899Z,0.00
2023-07-29T03:18:03.059Z,0.00
2023-07-29T03:19:02.911Z,0.00
2023-07-29T03:20:08.593Z,0.00
2023-07-29T03:21:02.900Z,0.00
2023-07-29T03:22:08.929Z,0.00
2023-07-29T03:23:02.922Z,0.00
2023-07-29T03:24:08.968Z,0.00
2023-07-29T03:25:02.880Z,0.00
2023-07-29T03:26:04.118Z,0.00
2023-07-29T03:27:05.100Z,4.00
2023-07-29T03:28:02.920Z,0.00
2023-07-29T03:29:02.860Z,0.00
2023-07-29T03:30:02.814Z,0.00
2023-07-29T03:31:02.850Z,0.00
2023-07-29T04:01:28.307Z,24.00
2023-07-29T04:02:26.625Z,28.00
2023-07-29T04:03:26.659Z,28.00
2023-07-29T04:04:26.681Z,36.00
2023-07-29T04:05:26.714Z,40.00
2023-07-29T04:06:26.625Z,36.00
2023-07-29T04:07:26.628Z,44.00
2023-07-29T04:08:28.578Z,44.00
2023-07-29T04:09:26.603Z,44.00
2023-07-29T04:10:26.562Z,48.00
2023-07-29T04:11:26.602Z,44.00
2023-07-29T04:12:26.559Z,44.00
2023-07-29T04:13:26.593Z,44.00
2023-07-29T04:14:26.631Z,40.00
2023-07-29T04:15:26.582Z,40.00
2023-07-29T04:16:26.561Z,40.00
2023-07-29T04:17:26.464Z,40.00
2023-07-29T04:18:26.512Z,40.00
2023-07-29T04:19:26.427Z,44.00
2023-07-29T04:20:26.511Z,44.00
2023-07-29T04:21:26.504Z,40.00
2023-07-29T04:22:26.419Z,40.00
2023-07-29T04:23:26.432Z,48.00
2023-07-29T04:24:26.501Z,44.00
2023-07-29T04:25:26.393Z,52.00
2023-07-29T04:26:26.477Z,68.00
2023-07-29T04:27:26.401Z,80.00
2023-07-29T04:28:26.460Z,84.00
2023-07-29T04:29:26.420Z,96.00
2023-07-29T04:30:26.402Z,100.00
2023-07-29T04:31:26.398Z,108.00
2023-07-29T04:32:26.370Z,100.00
2023-07-29T04:33:26.555Z,104.00
2023-07-29T04:34:26.284Z,116.00
2023-07-29T04:35:26.320Z,104.00
2023-07-29T04:36:26.295Z,92.00
2023-07-29T04:37:26.287Z,96.00
2023-07-29T04:38:26.351Z,104.00
2023-07-29T04:39:26.225Z,96.00
2023-07-29T04:40:26.291Z,116.00
2023-07-29T04:41:26.234Z,124.00
2023-07-29T04:42:26.274Z,132.00
2023-07-29T04:43:26.219Z,132.00
2023-07-29T04:44:26.223Z,124.00
2023-07-29T04:45:26.217Z,116.00
2023-07-29T04:46:26.232Z,132.00
2023-07-29T04:47:27.414Z,148.00
2023-07-29T04:48:26.139Z,164.00
2023-07-29T04:49:26.198Z,176.00
2023-07-29T04:50:26.146Z,188.00
2023-07-29T04:51:26.148Z,192.00
2023-07-29T04:52:26.107Z,196.00
2023-07-29T04:53:26.130Z,200.00
2023-07-29T04:54:26.102Z,208.00
2023-07-29T04:55:26.178Z,208.00
2023-07-29T04:56:26.116Z,208.00
2023-07-29T04:57:26.107Z,200.00
2023-07-29T04:58:26.023Z,180.00
2023-07-29T04:59:26.035Z,148.00
2023-07-29T05:00:25.959Z,140.00
2023-07-29T05:01:26.074Z,144.00
2023-07-29T05:02:26.000Z,148.00
2023-07-29T05:03:25.990Z,160.00
2023-07-29T05:04:26.008Z,176.00
2023-07-29T05:05:25.968Z,196.00
2023-07-29T05:06:25.935Z,224.00
2023-07-29T05:07:25.932Z,252.00
2023-07-29T05:08:25.943Z,272.00
2023-07-29T05:09:28.892Z,292.00
2023-07-29T05:10:25.895Z,316.00
2023-07-29T05:11:25.907Z,348.00
2023-07-29T05:12:25.992Z,364.00
2023-07-29T05:13:25.927Z,384.00
2023-07-29T05:14:25.865Z,368.00
2023-07-29T05:15:25.888Z,380.00
2023-07-29T05:16:25.848Z,412.00
2023-07-29T05:17:25.815Z,408.00
2023-07-29T05:18:25.770Z,424.00
2023-07-29T05:19:25.749Z,440.00
2023-07-29T05:20:25.742Z,456.00
2023-07-29T05:21:25.710Z,472.00
2023-07-29T05:22:25.712Z,492.00
2023-07-29T05:23:25.714Z,484.00
2023-07-29T05:24:25.671Z,492.00
2023-07-29T05:25:25.667Z,468.00
2023-07-29T05:26:25.668Z,468.00
2023-07-29T05:27:25.638Z,448.00
2023-07-29T05:28:25.652Z,428.00
2023-07-29T05:29:25.632Z,428.00
2023-07-29T05:30:25.605Z,428.00
2023-07-29T05:31:25.626Z,424.00
2023-07-29T05:32:25.580Z,380.00
2023-07-29T05:33:25.658Z,272.00
2023-07-29T05:34:25.607Z,296.00
2023-07-29T05:35:25.562Z,248.00
2023-07-29T05:36:25.537Z,252.00
2023-07-29T05:37:25.531Z,196.00
2023-07-29T05:38:25.527Z,252.00
2023-07-29T05:39:25.530Z,328.00
2023-07-29T05:40:25.507Z,320.00
2023-07-29T05:41:25.474Z,364.00
2023-07-29T05:42:25.503Z,404.00
2023-07-29T05:43:25.474Z,436.00
2023-07-29T05:44:25.485Z,460.00
2023-07-29T05:45:25.436Z,464.00
2023-07-29T05:46:25.456Z,440.00
2023-07-29T05:47:25.432Z,448.00
2023-07-29T05:48:25.442Z,452.00
2023-07-29T05:49:25.408Z,460.00
2023-07-29T05:50:25.410Z,472.00
2023-07-29T05:51:25.400Z,480.00
2023-07-29T05:52:25.377Z,508.00
2023-07-29T05:53:25.428Z,592.00
2023-07-29T05:54:25.332Z,664.00
2023-07-29T05:55:25.335Z,720.00
2023-07-29T05:56:25.353Z,764.00
2023-07-29T05:57:25.350Z,796.00
2023-07-29T05:58:25.370Z,784.00
2023-07-29T05:59:25.319Z,764.00
2023-07-29T06:00:25.304Z,748.00
2023-07-29T06:01:25.277Z,764.00
2023-07-29T06:02:25.310Z,744.00
2023-07-29T06:03:25.318Z,708.00
2023-07-29T06:04:25.227Z,660.00
2023-07-29T06:05:25.247Z,632.00
2023-07-29T06:06:25.195Z,596.00
2023-07-29T06:07:25.282Z,600.00
2023-07-29T06:08:25.262Z,624.00
2023-07-29T06:09:25.364Z,516.00
2023-07-29T06:10:25.338Z,376.00
2023-07-29T06:11:25.229Z,484.00
2023-07-29T06:12:25.214Z,308.00
2023-07-29T06:13:25.367Z,200.00
2023-07-29T06:14:25.270Z,156.00
2023-07-29T06:15:25.248Z,180.00
2023-07-29T06:16:25.284Z,176.00
2023-07-29T06:17:25.215Z,212.00
2023-07-29T06:18:25.151Z,244.00
2023-07-29T06:19:25.202Z,252.00
2023-07-29T06:20:25.159Z,300.00
2023-07-29T06:21:25.351Z,208.00
2023-07-29T06:22:25.117Z,376.00
2023-07-29T06:23:25.084Z,596.00
2023-07-29T06:24:25.161Z,612.00
2023-07-29T06:25:25.157Z,684.00
2023-07-29T06:26:25.161Z,748.00
2023-07-29T06:27:25.086Z,812.00
2023-07-29T06:28:25.031Z,852.00
2023-07-29T06:29:25.125Z,840.00
2023-07-29T06:30:25.153Z,836.00
2023-07-29T06:31:25.087Z,852.00
2023-07-29T06:32:25.031Z,868.00
2023-07-29T06:33:25.018Z,880.00
2023-07-29T06:34:26.878Z,876.00
2023-07-29T06:35:25.006Z,852.00
2023-07-29T06:36:27.244Z,816.00
2023-07-29T06:37:24.923Z,776.00
2023-07-29T06:38:24.949Z,744.00
2023-07-29T06:39:25.056Z,736.00
2023-07-29T06:40:24.953Z,744.00
2023-07-29T06:41:45.962Z,772.00
2023-07-29T06:42:24.899Z,808.00
2023-07-29T06:43:24.873Z,776.00
2023-07-29T06:44:28.339Z,736.00
2023-07-29T06:45:26.317Z,680.00
2023-07-29T06:46:24.918Z,680.00
2023-07-29T06:47:24.974Z,704.00
2023-07-29T06:48:24.887Z,700.00
2023-07-29T06:49:24.937Z,704.00
2023-07-29T06:50:48.311Z,684.00
2023-07-29T06:51:24.862Z,772.00
2023-07-29T06:52:26.168Z,820.00
2023-07-29T06:53:25.909Z,856.00
2023-07-29T06:54:28.446Z,864.00
2023-07-29T06:55:24.783Z,876.00
2023-07-29T06:56:47.126Z,904.00
2023-07-29T06:57:45.738Z,924.00
2023-07-29T06:58:24.736Z,1004.00
2023-07-29T06:59:25.970Z,1036.00
2023-07-29T07:00:24.688Z,1004.00
2023-07-29T07:01:46.891Z,980.00
2023-07-29T07:02:24.645Z,980.00
2023-07-29T07:03:25.989Z,944.00
2023-07-29T07:04:24.630Z,920.00
2023-07-29T07:05:24.573Z,928.00
2023-07-29T07:06:24.554Z,960.00
2023-07-29T07:08:39.646Z,968.00
2023-07-29T07:09:41.457Z,1012.00
2023-07-29T07:10:39.479Z,1052.00
2023-07-29T07:11:39.555Z,1048.00
2023-07-29T07:12:40.263Z,1016.00
2023-07-29T07:13:40.692Z,996.00
2023-07-29T07:14:39.510Z,988.00
2023-07-29T07:15:39.436Z,988.00
2023-07-29T07:17:00.609Z,1000.00
2023-07-29T07:17:39.506Z,1020.00
2023-07-29T07:18:39.752Z,1072.00
2023-07-29T07:19:47.939Z,1144.00
2023-07-29T07:20:47.340Z,1132.00
2023-07-29T07:21:39.444Z,1096.00
2023-07-29T07:22:39.473Z,1084.00
2023-07-29T07:23:39.305Z,1140.00
2023-07-29T07:24:40.367Z,1252.00
2023-07-29T07:25:39.387Z,1324.00
2023-07-29T07:26:46.004Z,1380.00
2023-07-29T07:27:39.331Z,1408.00
2023-07-29T07:28:39.334Z,1416.00
2023-07-29T07:29:39.459Z,1388.00
2023-07-29T07:30:40.496Z,1384.00
2023-07-29T07:31:39.420Z,1420.00
2023-07-29T07:32:39.384Z,1420.00
2023-07-29T07:33:39.328Z,1376.00
2023-07-29T07:34:39.357Z,1264.00
2023-07-29T07:35:39.297Z,1124.00
2023-07-29T07:36:40.404Z,1100.00
2023-07-29T07:37:39.267Z,1216.00
2023-07-29T07:38:39.296Z,1376.00
2023-07-29T07:39:39.234Z,1424.00
2023-07-29T07:40:42.665Z,1408.00
2023-07-29T07:42:11.204Z,1208.00
2023-07-29T07:43:02.453Z,1072.00
2023-07-29T07:43:39.175Z,1228.00
2023-07-29T07:58:06.946Z,1804.00
2023-07-29T07:59:05.732Z,1760.00
2023-07-29T08:00:04.901Z,1752.00
2023-07-29T08:01:04.813Z,1780.00
2023-07-29T08:02:04.805Z,1808.00
2023-07-29T08:03:04.887Z,1780.00
2023-07-29T08:04:09.332Z,1740.00
2023-07-29T08:05:26.887Z,1700.00
2023-07-29T08:06:04.764Z,1608.00
2023-07-29T08:07:04.776Z,1616.00
2023-07-29T08:08:04.696Z,1632.00
2023-07-29T08:09:04.758Z,1608.00
2023-07-29T08:10:04.722Z,1628.00
2023-07-29T08:11:04.621Z,1732.00
2023-07-29T08:12:04.633Z,1824.00
2023-07-29T08:13:04.655Z,1812.00
2023-07-29T08:14:06.730Z,1764.00
2023-07-29T08:15:04.626Z,1736.00
2023-07-29T08:16:04.658Z,1768.00
2023-07-29T08:17:04.588Z,1800.00
2023-07-29T08:18:04.592Z,1800.00
2023-07-29T08:19:04.556Z,1764.00
2023-07-29T08:20:04.541Z,1688.00
2023-07-29T08:21:04.511Z,1624.00
2023-07-29T08:22:06.858Z,1552.00
2023-07-29T08:23:04.560Z,1556.00
2023-07-29T08:24:04.567Z,1644.00
2023-07-29T08:25:04.447Z,1792.00
2023-07-29T08:26:04.486Z,1920.00
2023-07-29T08:27:04.458Z,2016.00
2023-07-29T08:28:04.510Z,2028.00
2023-07-29T08:29:04.430Z,1996.00
2023-07-29T08:30:04.459Z,1944.00
2023-07-29T08:31:04.422Z,1808.00
2023-07-29T08:32:04.368Z,1600.00
2023-07-29T08:33:04.372Z,1440.00
2023-07-29T08:34:04.421Z,1296.00
2023-07-29T08:35:04.340Z,1112.00
2023-07-29T08:36:04.334Z,988.00
2023-07-29T08:37:04.312Z,876.00
2023-07-29T08:38:04.325Z,748.00
2023-07-29T08:39:04.335Z,664.00
2023-07-29T08:40:04.290Z,644.00
2023-07-29T08:41:04.287Z,640.00
2023-07-29T08:42:04.421Z,664.00
2023-07-29T08:43:04.269Z,764.00
2023-07-29T08:44:04.248Z,956.00
2023-07-29T08:45:04.253Z,1156.00
2023-07-29T08:46:04.243Z,1292.00
2023-07-29T08:47:04.327Z,1260.00
2023-07-29T08:48:04.265Z,1096.00
2023-07-29T08:49:04.200Z,932.00
2023-07-29T08:50:04.350Z,824.00
2023-07-29T08:51:04.233Z,708.00
2023-07-29T08:52:04.241Z,628.00
2023-07-29T08:53:04.223Z,584.00
2023-07-29T08:54:04.193Z,560.00
2023-07-29T08:55:04.211Z,536.00
2023-07-29T08:56:04.160Z,508.00
2023-07-29T08:57:04.156Z,500.00
2023-07-29T08:58:04.084Z,500.00
2023-07-29T08:59:04.104Z,496.00
2023-07-29T09:00:04.073Z,492.00
2023-07-29T09:01:25.178Z,496.00
2023-07-29T09:02:04.227Z,484.00
2023-07-29T09:03:25.113Z,508.00
2023-07-29T09:04:04.210Z,512.00
2023-07-29T09:05:04.082Z,512.00
2023-07-29T09:06:03.980Z,572.00
2023-07-29T09:07:04.175Z,636.00
2023-07-29T09:08:03.961Z,804.00
2023-07-29T09:09:03.992Z,724.00
2023-07-29T09:10:04.006Z,756.00
2023-07-29T09:11:03.989Z,844.00
2023-07-29T09:12:03.919Z,1148.00
2023-07-29T09:13:03.902Z,1404.00
2023-07-29T09:14:03.976Z,920.00
2023-07-29T09:15:03.893Z,916.00
2023-07-29T09:16:03.897Z,744.00
2023-07-29T09:17:03.905Z,840.00
2023-07-29T09:18:03.944Z,1020.00
2023-07-29T09:19:03.911Z,1232.00
2023-07-29T09:20:03.866Z,1656.00
2023-07-29T09:21:03.832Z,1340.00
2023-07-29T09:22:03.868Z,1072.00
2023-07-29T09:23:03.885Z,1292.00
2023-07-29T09:24:03.818Z,1588.00
2023-07-29T09:25:03.803Z,1480.00
2023-07-29T09:26:03.813Z,1476.00
2023-07-29T09:27:03.758Z,1668.00
2023-07-29T09:28:03.919Z,1320.00
2023-07-29T09:29:03.856Z,1108.00
2023-07-29T09:30:03.763Z,1188.00
2023-07-29T09:31:03.934Z,1248.00
2023-07-29T09:32:03.723Z,1108.00
2023-07-29T09:33:03.769Z,1160.00
2023-07-29T09:34:03.891Z,1164.00
2023-07-29T09:35:03.747Z,1428.00
2023-07-29T09:36:03.652Z,1064.00
2023-07-29T09:37:03.789Z,1284.00
2023-07-29T09:38:03.757Z,1456.00
2023-07-29T09:39:03.683Z,1732.00
2023-07-29T09:40:03.710Z,1764.00
2023-07-29T09:41:03.700Z,1588.00
2023-07-29T09:42:03.887Z,1300.00
2023-07-29T09:43:03.748Z,1764.00
2023-07-29T09:44:03.676Z,1792.00
2023-07-29T09:45:03.689Z,1784.00
2023-07-29T09:46:03.638Z,1480.00
2023-07-29T09:47:03.716Z,972.00
2023-07-29T09:48:03.634Z,1264.00
2023-07-29T09:49:03.562Z,1596.00
2023-07-29T09:50:03.527Z,1520.00
2023-07-29T09:51:03.666Z,1296.00
2023-07-29T09:52:03.613Z,1352.00
2023-07-29T09:53:03.772Z,1368.00
2023-07-29T09:54:03.507Z,1484.00
2023-07-29T09:55:03.735Z,1548.00
2023-07-29T09:56:03.656Z,1904.00
2023-07-29T09:57:03.551Z,1852.00
2023-07-29T09:58:03.539Z,1504.00
2023-07-29T09:59:05.773Z,1672.00
2023-07-29T10:00:03.558Z,1484.00
2023-07-29T10:01:03.451Z,1368.00
2023-07-29T10:02:03.499Z,1520.00
2023-07-29T10:03:03.647Z,1712.00
2023-07-29T10:04:03.927Z,2212.00
2023-07-29T10:05:03.553Z,2104.00
2023-07-29T10:06:03.609Z,2240.00
2023-07-29T10:07:03.434Z,2244.00
2023-07-29T10:08:03.383Z,1912.00
2023-07-29T10:09:03.433Z,1680.00
2023-07-29T10:10:03.563Z,1488.00
2023-07-29T10:11:03.502Z,1360.00
2023-07-29T10:12:03.422Z,1344.00
2023-07-29T10:13:03.453Z,1540.00
2023-07-29T10:14:08.807Z,1644.00
2023-07-29T10:15:04.411Z,1480.00
2023-07-29T10:16:03.601Z,1152.00
2023-07-29T10:17:03.557Z,1460.00
2023-07-29T10:18:03.318Z,1536.00
2023-07-29T10:19:03.431Z,1384.00
2023-07-29T10:20:03.372Z,1340.00
2023-07-29T10:21:03.343Z,1652.00
2023-07-29T10:22:03.239Z,1632.00
2023-07-29T10:23:03.248Z,1260.00
2023-07-29T10:24:03.398Z,732.00
2023-07-29T10:25:03.339Z,596.00
2023-07-29T10:26:03.365Z,612.00
2023-07-29T10:27:03.293Z,516.00
2023-07-29T10:28:03.319Z,456.00
2023-07-29T10:29:04.995Z,436.00
2023-07-29T10:30:03.341Z,316.00
2023-07-29T10:31:03.254Z,476.00
2023-07-29T10:32:03.356Z,1116.00
2023-07-29T10:52:39.167Z,1408.00
2023-07-29T10:54:00.059Z,1728.00
2023-07-29T10:54:39.069Z,1240.00
2023-07-29T10:55:38.973Z,976.00
2023-07-29T10:56:39.345Z,948.00
2023-07-29T10:57:39.089Z,940.00
2023-07-29T10:58:39.053Z,860.00
2023-07-29T10:59:38.957Z,836.00
2023-07-29T11:00:38.968Z,776.00
2023-07-29T11:01:39.013Z,728.00
2023-07-29T11:02:39.162Z,760.00
2023-07-29T11:03:38.964Z,1016.00
2023-07-29T11:04:38.942Z,920.00
2023-07-29T11:05:38.914Z,692.00
2023-07-29T11:06:40.750Z,1088.00
2023-07-29T11:07:38.924Z,1216.00
2023-07-29T11:08:38.913Z,784.00
2023-07-29T11:09:39.036Z,760.00
2023-07-29T11:10:38.928Z,828.00
2023-07-29T11:11:38.874Z,1008.00
2023-07-29T11:12:38.981Z,1264.00
2023-07-29T11:13:38.745Z,1308.00
2023-07-29T11:14:39.028Z,1632.00
2023-07-29T11:15:38.743Z,1516.00
2023-07-29T11:16:38.968Z,1560.00
2023-07-29T11:17:39.015Z,1316.00
2023-07-29T11:18:38.775Z,1632.00
2023-07-29T11:19:38.807Z,1224.00
2023-07-29T11:20:38.949Z,1112.00
2023-07-29T11:21:39.028Z,1248.00
2023-07-29T11:22:38.816Z,1608.00
2023-07-29T11:23:38.761Z,1788.00
2023-07-29T11:24:38.802Z,1832.00
2023-07-29T11:25:38.840Z,1588.00
2023-07-29T11:26:38.998Z,1340.00
2023-07-29T11:27:38.782Z,1612.00
2023-07-29T11:28:38.818Z,1584.00
2023-07-29T11:29:38.710Z,1404.00
2023-07-29T11:30:38.656Z,1040.00
2023-07-29T11:31:38.652Z,1064.00
2023-07-29T11:32:38.620Z,1408.00
2023-07-29T11:33:38.592Z,1240.00
2023-07-29T11:34:38.906Z,1484.00
2023-07-29T11:35:38.722Z,1348.00
2023-07-29T11:36:38.982Z,1580.00
2023-07-29T11:37:38.766Z,1632.00
2023-07-29T11:38:38.543Z,1728.00
2023-07-29T11:39:38.636Z,1304.00
2023-07-29T11:40:38.545Z,1620.00
2023-07-29T11:41:38.622Z,1208.00
2023-07-29T11:42:38.967Z,1256.00
2023-07-29T11:43:40.351Z,1040.00
2023-07-29T11:44:38.550Z,844.00
2023-07-29T11:45:50.736Z,696.00
2023-07-29T11:46:39.910Z,756.00
2023-07-29T11:47:38.594Z,1628.00
2023-07-29T11:48:38.513Z,1456.00
2023-07-29T11:49:38.768Z,1080.00
2023-07-29T11:50:38.418Z,1372.00
2023-07-29T11:51:38.664Z,1548.00
2023-07-29T11:52:38.435Z,1264.00
2023-07-29T11:53:39.250Z,964.00
2023-07-29T11:54:38.421Z,1204.00
2023-07-29T11:55:38.359Z,1324.00
2023-07-29T11:56:38.586Z,1372.00
2023-07-29T11:57:40.142Z,1340.00
2023-07-29T11:58:38.274Z,1716.00
2023-07-29T13:43:36.897Z,1324.00
2023-07-29T13:44:37.763Z,1240.00
2023-07-29T13:45:35.892Z,1236.00
2023-07-29T13:46:36.122Z,1204.00
2023-07-29T13:47:35.804Z,956.00
2023-07-29T13:48:35.770Z,1108.00
2023-07-29T13:49:35.766Z,1084.00
2023-07-29T13:50:35.813Z,932.00
2023-07-29T13:51:35.895Z,680.00
2023-07-29T13:52:35.720Z,600.00
2023-07-29T13:53:35.707Z,564.00
2023-07-29T13:54:35.746Z,532.00
2023-07-29T13:55:35.751Z,468.00
2023-07-29T13:56:35.787Z,408.00
2023-07-29T13:57:35.745Z,244.00
2023-07-29T13:58:35.674Z,160.00
2023-07-29T13:59:35.613Z,128.00
2023-07-29T14:00:35.867Z,120.00
2023-07-29T14:01:35.667Z,184.00
2023-07-29T14:02:35.752Z,208.00
2023-07-29T14:03:37.658Z,216.00
2023-07-29T14:04:35.615Z,164.00
2023-07-29T14:05:35.627Z,132.00
2023-07-29T14:06:45.632Z,124.00
2023-07-29T14:07:36.614Z,100.00
2023-07-29T14:08:35.589Z,116.00
2023-07-29T14:09:35.540Z,144.00
2023-07-29T14:10:37.214Z,172.00
2023-07-29T14:11:35.747Z,120.00
2023-07-29T14:12:35.536Z,56.00
2023-07-29T14:13:35.615Z,44.00
2023-07-29T14:14:35.466Z,56.00
2023-07-29T14:15:35.570Z,56.00
2023-07-29T14:16:35.733Z,64.00
2023-07-29T14:17:35.572Z,76.00
2023-07-29T14:18:35.602Z,80.00
2023-07-29T14:19:35.506Z,96.00
2023-07-29T14:20:35.326Z,92.00
2023-07-29T14:21:35.322Z,104.00
2023-07-29T14:22:35.488Z,124.00
2023-07-29T14:23:35.287Z,124.00
2023-07-29T14:24:35.280Z,128.00
2023-07-29T14:25:35.290Z,124.00
2023-07-29T14:26:35.555Z,120.00
2023-07-29T14:27:35.280Z,120.00
2023-07-29T14:28:35.342Z,128.00
2023-07-29T14:29:35.279Z,128.00
2023-07-29T14:30:35.198Z,132.00
2023-07-29T14:31:35.225Z,136.00
2023-07-29T14:32:35.199Z,136.00
2023-07-29T14:33:35.149Z,144.00
2023-07-29T14:34:36.408Z,164.00
2023-07-29T14:35:35.144Z,176.00
2023-07-29T14:36:35.450Z,192.00
2023-07-29T14:37:35.191Z,212.00
2023-07-29T14:38:35.236Z,228.00
2023-07-29T14:39:35.181Z,252.00
2023-07-29T14:40:35.276Z,268.00
2023-07-29T14:41:35.236Z,288.00
2023-07-29T14:42:36.253Z,312.00
2023-07-29T14:43:35.143Z,324.00
2023-07-29T14:44:35.116Z,356.00
2023-07-29T14:45:35.325Z,372.00
2023-07-29T14:46:37.339Z,384.00
2023-07-29T14:47:35.142Z,396.00
2023-07-29T14:48:35.080Z,412.00
2023-07-29T14:49:35.055Z,432.00
2023-07-29T14:50:35.128Z,468.00
2023-07-29T14:51:35.142Z,524.00
2023-07-29T14:52:35.114Z,564.00
2023-07-29T14:53:35.141Z,596.00
2023-07-29T14:54:35.068Z,596.00
2023-07-29T14:55:35.142Z,548.00
2023-07-29T14:56:35.272Z,508.00
2023-07-29T14:57:35.000Z,476.00
2023-07-29T14:58:34.980Z,448.00
2023-07-29T14:59:35.088Z,444.00
2023-07-29T15:00:35.041Z,444.00
2023-07-29T15:01:35.025Z,460.00
2023-07-29T15:02:35.081Z,488.00
2023-07-29T15:03:35.218Z,524.00
2023-07-29T15:04:34.975Z,572.00
2023-07-29T15:05:35.004Z,620.00
2023-07-29T15:06:35.762Z,672.00
2023-07-29T15:07:34.895Z,724.00
2023-07-29T15:08:34.991Z,788.00
2023-07-29T15:09:34.948Z,848.00
2023-07-29T15:10:34.928Z,936.00
2023-07-29T15:11:34.882Z,1048.00
2023-07-29T15:12:34.853Z,1140.00
2023-07-29T15:13:49.171Z,1164.00
2023-07-29T15:14:34.949Z,1224.00
2023-07-29T15:15:34.865Z,1336.00
2023-07-29T15:16:35.198Z,1444.00
2023-07-29T15:17:34.848Z,1500.00
2023-07-29T15:18:34.839Z,1500.00
2023-07-29T15:19:34.911Z,1460.00
2023-07-29T15:20:34.779Z,1372.00
2023-07-29T15:21:55.831Z,1288.00
2023-07-29T15:22:34.759Z,1208.00
2023-07-29T15:23:34.734Z,1160.00
2023-07-29T15:24:34.800Z,1136.00
2023-07-29T15:25:34.758Z,1108.00
2023-07-29T15:26:35.131Z,1088.00
2023-07-29T15:27:35.193Z,1100.00
2023-07-29T15:28:34.778Z,1080.00
2023-07-29T15:29:34.867Z,1052.00
2023-07-29T15:30:34.675Z,1096.00
2023-07-29T15:31:34.704Z,1044.00
2023-07-29T15:32:34.677Z,1116.00
2023-07-29T15:33:34.712Z,1100.00
2023-07-29T15:34:34.628Z,992.00
2023-07-29T15:35:34.611Z,824.00
2023-07-29T15:36:34.867Z,712.00
2023-07-29T15:37:34.631Z,624.00
2023-07-29T15:38:34.607Z,528.00
2023-07-29T15:39:34.543Z,464.00
2023-07-29T15:40:34.550Z,420.00
2023-07-29T15:41:34.601Z,388.00
2023-07-29T15:42:34.559Z,368.00
2023-07-29T15:43:34.496Z,364.00
2023-07-29T15:44:34.419Z,356.00
2023-07-29T15:45:34.466Z,352.00
2023-07-29T15:46:34.747Z,348.00
2023-07-29T15:47:34.542Z,344.00
2023-07-29T15:48:34.483Z,340.00
2023-07-29T15:49:34.465Z,340.00
2023-07-29T15:50:34.418Z,340.00
2023-07-29T15:51:34.497Z,336.00
2023-07-29T15:52:34.428Z,340.00
2023-07-29T15:53:34.443Z,336.00
2023-07-29T15:54:34.437Z,336.00
2023-07-29T15:55:34.555Z,340.00
2023-07-29T15:56:36.691Z,336.00
2023-07-29T15:57:34.334Z,340.00
2023-07-29T15:58:36.422Z,340.00
2023-07-29T15:59:34.416Z,340.00
2023-07-29T16:00:34.388Z,340.00
2023-07-29T16:01:34.503Z,340.00
2023-07-29T16:02:34.498Z,340.00
2023-07-29T16:03:34.411Z,340.00
2023-07-29T16:04:34.287Z,340.00
2023-07-29T16:05:34.391Z,344.00
2023-07-29T16:06:34.357Z,344.00
2023-07-29T16:07:34.347Z,340.00
2023-07-29T16:08:34.209Z,344.00